Saint George, UT

7:20 PM MST on February 24, 2017 (GMT -0700)
Saint George Municipal | | Change Station

Elev 2884 ft 37.04 °N, 113.51 °W | Updated 24 minutes ago

Clear
Clear
43 °F
Feels Like 39 °F
N
7
Wind Variable Wind from WSW

Today
High -- | Low -- °F
--% Chance of Precip.
Yesterday
High -- | Low -- °F
Precip. -- in
Pressure 30.15 in
Visibility 10.0 miles
Clouds Clear
Windchill 39 °F
Dew Point 10 °F
Humidity 26%
Rainfall 0.00 in
Snow Depth Not available.
7:11 AM 6:23 PM
Waning Crescent, 3% visible
METAR KSGU 250156Z AUTO 24006KT 10SM CLR 06/M12 A3012 RMK AO2 SLP208 T00611122
Pressure 30.15 in
Visibility 10.0 miles
Clouds Clear
Windchill 39 °F
Dew Point 10 °F
Humidity 26%
Rainfall 0.00 in
Snow Depth Not available.
7:11 AM 6:23 PM
Waning Crescent, 3% visible
METAR KSGU 250156Z AUTO 24006KT 10SM CLR 06/M12 A3012 RMK AO2 SLP208 T00611122

Get Your Daily Forecast Email!

Thanks for signing up!

Be on the lookout for a verification email in your inbox.

You'll start receiving the daily forecast at 8 AM.

×

10-Day Weather Forecast

Almanac

Astronomy

Feb. 24, 2017 Rise Set
Actual Time
Civil Twilight
Nautical Twilight
Astronomical Twilight
Moon
Length of Visible Light
Length of Day
Tomorrow will be .
, % of the Moon is Illuminated

Today's Extremes

State Highs State Lows

Community

WunderPhotos

Upload Photos

1,962,540 photos uploaded!

WunderBlog® & News

Nearby

Air Quality

  Air Quality AQ Index Pollutant
Not available.

Snow Depth

Station Depth Elevation

Earthquake Activity

City Distance Mag. Time & Date
Minimum magnitude displayed is 2.5.

Coastal Water Temperatures

Place Temperature

Stations

Nearby Weather Stations

Station Location Temp. Windchill Dew Point Humidity Wind Precip. Elev Updated Type
                   

Watches & Warnings

There are currently no watches in effect.